Time;durP1;ratioP1;P1;durP2;ratioP2;P2;SDS_P1;SDS_P2;PMS_P1;PMS_P2;Temp;Humidity;BMP_temperature;BMP_pressure;BME280_temperature;BME280_humidity;BME280_pressure;Samples;Min_cycle;Max_cycle;Signal;HPM_P1;HPM_P2
2021/05/08 00:00:54;;;;;;;0.10;0.10;;;9.90;4.40;;;;;;5047310;28;20574;-79
2021/05/08 00:03:20;;;;;;;0.10;0.10;;;10.00;99.90;;;;;;5063948;28;20036;-79
2021/05/08 00:05:47;;;;;;;0.10;0.10;;;10.00;99.90;;;;;;5075795;28;20107;-79
2021/05/08 00:08:13;;;;;;;0.30;0.30;;;9.90;1.00;;;;;;5070778;28;20060;-79
2021/05/08 00:10:39;;;;;;;0.20;0.20;;;9.90;99.90;;;;;;5053264;28;20028;-79
2021/05/08 00:13:05;;;;;;;0.15;0.15;;;9.90;99.90;;;;;;5066635;28;20082;-79
2021/05/08 00:15:30;;;;;;;0.80;0.60;;;9.90;90.90;;;;;;5065903;28;20081;-79
2021/05/08 00:17:56;;;;;;;0.17;0.17;;;9.90;1.00;;;;;;5066288;28;20039;-79
2021/05/08 00:20:22;;;;;;;0.10;0.10;;;9.80;1.00;;;;;;5067057;28;20028;-79
2021/05/08 00:22:48;;;;;;;0.10;0.10;;;9.70;99.90;;;;;;5067161;28;20036;-79
2021/05/08 00:25:14;;;;;;;0.30;0.30;;;9.80;95.70;;;;;;5061412;28;20021;-79
2021/05/08 00:27:39;;;;;;;0.10;0.10;;;9.80;99.90;;;;;;5053740;28;20544;-79
2021/05/08 00:30:07;;;;;;;0.55;0.55;;;9.70;99.90;;;;;;5066669;28;20078;-79
2021/05/08 00:32:33;;;;;;;;;;;9.70;55.60;;;;;;5067493;28;20148;-79
2021/05/08 00:34:59;;;;;;;0.17;0.17;;;9.60;99.90;;;;;;5065889;28;19923;-79
2021/05/08 00:37:25;;;;;;;0.10;0.10;;;9.50;1.00;;;;;;5067216;28;20024;-79
2021/05/08 00:39:51;;;;;;;0.10;0.10;;;9.50;99.90;;;;;;5085010;28;20035;-79
2021/05/08 00:42:17;;;;;;;0.75;0.75;;;9.50;1.00;;;;;;5072342;28;20076;-79
2021/05/08 00:44:43;;;;;;;0.88;0.85;;;9.50;99.90;;;;;;5063526;28;20041;-79
2021/05/08 00:47:11;;;;;;;0.20;0.20;;;9.70;99.90;;;;;;5047060;28;20052;-79
2021/05/08 00:49:38;;;;;;;0.00;0.00;;;9.50;99.90;;;;;;5046782;28;20075;-79
2021/05/08 00:52:04;;;;;;;0.10;0.10;;;9.40;94.10;;;;;;5076957;28;20037;-79
2021/05/08 00:54:30;;;;;;;0.10;0.10;;;9.40;1.00;;;;;;5076958;28;20028;-79
2021/05/08 00:56:56;;;;;;;0.82;0.55;;;9.40;99.90;;;;;;5067461;28;20055;-79
2021/05/08 00:59:22;;;;;;;0.10;0.10;;;9.40;99.90;;;;;;5064983;28;20528;-79
2021/05/08 01:01:48;;;;;;;0.10;0.10;;;9.40;99.90;;;;;;5082733;28;20032;-79
2021/05/08 01:04:14;;;;;;;0.40;0.40;;;9.30;99.90;;;;;;5056235;28;20033;-79
2021/05/08 01:06:41;;;;;;;0.30;0.30;;;9.10;99.90;;;;;;5049998;28;20036;-79
2021/05/08 01:09:07;;;;;;;1.35;0.40;;;9.20;99.90;;;;;;5046526;28;20049;-79
2021/05/08 01:11:35;;;;;;;0.15;0.15;;;9.00;99.90;;;;;;5050857;28;20029;-80
2021/05/08 01:14:02;;;;;;;0.68;0.32;;;9.10;99.90;;;;;;5069926;28;20388;-79
2021/05/08 01:16:28;;;;;;;0.00;0.00;;;9.10;99.90;;;;;;5067846;28;20111;-79
2021/05/08 01:18:55;;;;;;;0.10;0.10;;;9.00;99.90;;;;;;5070104;28;20029;-79
2021/05/08 01:21:21;;;;;;;1.10;0.98;;;9.10;99.90;;;;;;5083586;28;20307;-79
2021/05/08 01:23:48;;;;;;;0.10;0.10;;;9.10;99.90;;;;;;5085241;28;20031;-79
2021/05/08 01:26:14;;;;;;;0.10;0.10;;;9.20;99.90;;;;;;5059516;28;20921;-79
2021/05/08 01:28:40;;;;;;;0.10;0.10;;;9.10;99.90;;;;;;5078726;28;20131;-79
2021/05/08 01:31:09;;;;;;;0.93;0.25;;;9.20;99.90;;;;;;5090007;28;20085;-79
2021/05/08 01:33:35;;;;;;;0.10;0.10;;;9.10;99.90;;;;;;5089872;28;20096;-79
2021/05/08 01:36:01;;;;;;;0.10;0.10;;;9.10;99.90;;;;;;5066468;28;20042;-79
2021/05/08 01:38:28;;;;;;;0.32;0.20;;;9.20;99.90;;;;;;5049796;28;20024;-78
2021/05/08 01:41:06;;;;;;;0.03;0.03;;;9.20;4.60;;;;;;5049711;28;20040;-79
2021/05/08 01:43:32;;;;;;;0.13;0.13;;;9.20;99.90;;;;;;5067496;28;20403;-79
2021/05/08 01:45:58;;;;;;;0.08;0.08;;;9.50;99.90;;;;;;5089972;28;20086;-79
2021/05/08 01:48:25;;;;;;;9.02;0.98;;;9.70;25.90;;;;;;5089447;28;20032;-79
2021/05/08 01:50:51;;;;;;;0.10;0.10;;;9.60;99.90;;;;;;5077045;28;20081;-79
2021/05/08 01:53:17;;;;;;;0.10;0.10;;;9.50;99.90;;;;;;5069003;28;20078;-79
2021/05/08 01:55:43;;;;;;;0.50;0.50;;;9.60;1.00;;;;;;5067939;28;20035;-79
2021/05/08 01:58:09;;;;;;;0.10;0.10;;;9.70;61.00;;;;;;5068811;28;20178;-79
2021/05/08 02:00:41;;;;;;;0.38;0.20;;;9.70;99.90;;;;;;5069240;28;20108;-78
2021/05/08 02:03:07;;;;;;;0.10;0.10;;;9.60;99.90;;;;;;5069383;28;20125;-79
2021/05/08 02:05:34;;;;;;;0.00;0.00;;;9.70;99.90;;;;;;5069276;28;20035;-79
2021/05/08 02:08:03;;;;;;;2.72;0.68;;;9.70;99.90;;;;;;5069456;28;20056;-79
2021/05/08 02:10:33;;;;;;;0.10;0.10;;;9.70;99.90;;;;;;5074352;28;20023;-79
2021/05/08 02:13:04;;;;;;;0.03;0.03;;;9.60;99.90;;;;;;5076644;28;20411;-79
2021/05/08 02:15:30;;;;;;;0.00;0.00;;;9.60;99.90;;;;;;5069035;28;20028;-79
2021/05/08 02:17:55;;;;;;;0.03;0.03;;;9.70;99.90;;;;;;5069214;28;20024;-79
2021/05/08 02:20:29;;;;;;;3.55;1.25;;;9.70;99.90;;;;;;5088440;28;20020;-79
2021/05/08 02:23:00;;;;;;;1.63;0.55;;;9.70;99.90;;;;;;5064608;28;20085;-79
2021/05/08 02:25:27;;;;;;;2.63;0.30;;;9.80;1.00;;;;;;5068264;28;20032;-79
2021/05/08 02:27:53;;;;;;;0.00;0.00;;;9.80;99.90;;;;;;5067825;28;20055;-79
2021/05/08 02:30:23;;;;;;;0.98;0.75;;;9.80;1.00;;;;;;5079827;28;20028;-78
2021/05/08 02:32:49;;;;;;;0.10;0.10;;;9.80;99.90;;;;;;5068335;28;20033;-78
2021/05/08 02:35:18;;;;;;;0.10;0.10;;;9.80;99.90;;;;;;5066563;28;20025;-79
2021/05/08 02:37:44;;;;;;;0.10;0.10;;;9.80;61.40;;;;;;5056257;28;20142;-79
2021/05/08 02:40:13;;;;;;;0.17;0.17;;;9.90;99.90;;;;;;5051323;28;20495;-78
2021/05/08 02:42:40;;;;;;;0.20;0.20;;;9.90;99.90;;;;;;5067979;28;20035;-78
2021/05/08 02:45:07;;;;;;;0.05;0.05;;;9.90;1.00;;;;;;5067910;28;20373;-78
2021/05/08 02:47:34;;;;;;;0.47;0.47;;;9.90;99.90;;;;;;5067267;28;20039;-78
2021/05/08 02:49:59;;;;;;;0.20;0.20;;;9.90;99.90;;;;;;5071435;28;20050;-79
2021/05/08 02:52:25;;;;;;;0.15;0.15;;;9.80;99.90;;;;;;5086422;28;20040;-79
2021/05/08 02:54:51;;;;;;;0.57;0.57;;;9.80;99.90;;;;;;5087180;28;20099;-79
2021/05/08 02:57:17;;;;;;;0.15;0.15;;;9.80;1.00;;;;;;5068107;28;20021;-78
2021/05/08 02:59:43;;;;;;;0.10;0.10;;;9.80;99.90;;;;;;5066857;28;20772;-79
2021/05/08 03:02:09;;;;;;;0.20;0.20;;;9.80;1.00;;;;;;5068248;28;20062;-79
2021/05/08 03:04:35;;;;;;;0.10;0.10;;;9.80;43.30;;;;;;5067930;28;20404;-79
2021/05/08 03:07:02;;;;;;;0.63;0.63;;;9.80;12.20;;;;;;5048193;28;20072;-80
2021/05/08 03:09:28;;;;;;;0.20;0.20;;;9.70;99.90;;;;;;5064265;28;20048;-79
2021/05/08 03:11:54;;;;;;;0.20;0.20;;;9.60;99.90;;;;;;5064037;28;20041;-79
2021/05/08 03:14:21;;;;;;;0.10;0.10;;;9.60;1.00;;;;;;5067327;28;20036;-79
2021/05/08 03:16:47;;;;;;;0.10;0.10;;;9.40;4.70;;;;;;5057562;28;20032;-79
2021/05/08 03:19:12;;;;;;;0.10;0.10;;;9.60;99.90;;;;;;5048233;28;20028;-79
2021/05/08 03:21:38;;;;;;;0.90;0.85;;;9.50;99.90;;;;;;5073103;28;20016;-79
2021/05/08 03:24:05;;;;;;;0.20;0.20;;;9.60;99.90;;;;;;5067975;28;20039;-79
2021/05/08 03:26:31;;;;;;;0.00;0.00;;;9.60;99.90;;;;;;5078475;28;20798;-79
2021/05/08 03:28:57;;;;;;;0.10;0.10;;;9.50;1.00;;;;;;5079108;28;20036;-79
2021/05/08 03:31:23;;;;;;;0.00;0.00;;;9.40;99.90;;;;;;5068189;28;20104;-79
2021/05/08 03:33:49;;;;;;;0.00;0.00;;;9.30;48.30;;;;;;5051248;28;20124;-79
2021/05/08 03:36:16;;;;;;;0.13;0.13;;;9.10;1.00;;;;;;5065456;28;20028;-79
2021/05/08 03:38:41;;;;;;;0.20;0.20;;;9.00;34.70;;;;;;5078711;28;20032;-79
2021/05/08 03:41:07;;;;;;;0.20;0.20;;;9.00;99.90;;;;;;5088293;28;20031;-79
2021/05/08 03:43:33;;;;;;;0.10;0.10;;;9.00;99.90;;;;;;5088290;28;20048;-79
2021/05/08 03:45:59;;;;;;;0.35;0.35;;;9.10;99.90;;;;;;5070138;28;20764;-79
2021/05/08 03:48:25;;;;;;;0.10;0.10;;;9.10;99.90;;;;;;5068186;28;20377;-79
2021/05/08 03:50:52;;;;;;;0.10;0.10;;;9.10;99.90;;;;;;5058822;28;20397;-79
2021/05/08 03:53:21;;;;;;;0.10;0.10;;;9.10;1.00;;;;;;5051669;28;20706;-79
2021/05/08 03:55:48;;;;;;;0.10;0.10;;;8.90;99.90;;;;;;5070156;28;20029;-79
2021/05/08 03:58:14;;;;;;;0.10;0.10;;;9.00;99.90;;;;;;5082544;28;20027;-79
2021/05/08 04:00:40;;;;;;;0.30;0.30;;;9.10;98.50;;;;;;5077155;28;20028;-79
2021/05/08 04:03:05;;;;;;;0.20;0.20;;;9.00;95.60;;;;;;5060485;28;20032;-79
2021/05/08 04:05:31;;;;;;;0.10;0.10;;;9.00;99.90;;;;;;5064951;28;20037;-79
2021/05/08 04:07:57;;;;;;;0.00;0.00;;;9.10;69.60;;;;;;5047432;28;20123;-80
2021/05/08 04:10:23;;;;;;;0.15;0.15;;;9.10;92.50;;;;;;5056648;28;20037;-79
2021/05/08 04:12:49;;;;;;;0.10;0.10;;;9.10;6.20;;;;;;5073290;28;20028;-79
2021/05/08 04:15:15;;;;;;;0.10;0.10;;;9.10;99.90;;;;;;5084298;28;20093;-79
2021/05/08 04:17:40;;;;;;;0.00;0.00;;;9.20;99.90;;;;;;5057668;28;20755;-79
2021/05/08 04:20:07;;;;;;;0.10;0.10;;;9.30;1.00;;;;;;5051444;28;20028;-79
2021/05/08 04:22:32;;;;;;;0.10;0.10;;;9.30;99.90;;;;;;5067519;28;20028;-79
2021/05/08 04:24:58;;;;;;;0.25;0.20;;;9.40;99.90;;;;;;5067705;28;20036;-79
2021/05/08 04:27:24;;;;;;;0.17;0.17;;;9.40;99.90;;;;;;5066094;28;20496;-79
2021/05/08 04:29:50;;;;;;;0.10;0.10;;;9.20;22.10;;;;;;5057225;28;20887;-79
2021/05/08 04:32:15;;;;;;;0.10;0.10;;;9.30;99.90;;;;;;5049267;28;20475;-79
2021/05/08 04:34:41;;;;;;;0.10;0.10;;;9.30;99.90;;;;;;5063013;28;20060;-79
2021/05/08 04:37:07;;;;;;;0.25;0.25;;;9.30;99.90;;;;;;5067295;28;20431;-79
2021/05/08 04:39:33;;;;;;;0.20;0.20;;;9.20;99.90;;;;;;5065830;28;20052;-79
2021/05/08 04:41:59;;;;;;;0.30;0.30;;;9.00;99.90;;;;;;5066157;28;20082;-79
2021/05/08 04:44:26;;;;;;;0.20;0.20;;;9.00;20.90;;;;;;5066906;28;20051;-79
2021/05/08 04:46:51;;;;;;;0.00;0.00;;;9.00;12.50;;;;;;5085206;28;20043;-79
2021/05/08 04:49:18;;;;;;;0.00;0.00;;;9.10;1.00;;;;;;5090499;28;20054;-80
2021/05/08 04:51:45;;;;;;;0.10;0.10;;;9.10;1.00;;;;;;5071598;28;20020;-80
2021/05/08 04:54:10;;;;;;;0.10;0.10;;;9.20;99.90;;;;;;5071918;28;20108;-81
2021/05/08 04:56:36;;;;;;;0.05;0.05;;;9.40;97.60;;;;;;5071219;28;20142;-81
2021/05/08 04:59:02;;;;;;;14.07;0.63;;;9.50;99.90;;;;;;5068376;28;20024;-81
2021/05/08 05:01:29;;;;;;;0.00;0.00;;;9.70;99.90;;;;;;5081925;28;20017;-80
2021/05/08 05:03:55;;;;;;;0.25;0.25;;;9.70;1.00;;;;;;5068352;28;20028;-81
2021/05/08 05:06:21;;;;;;;0.10;0.10;;;9.80;99.90;;;;;;5073899;28;20058;-81
2021/05/08 05:08:47;;;;;;;0.10;0.10;;;10.00;22.20;;;;;;5091304;28;20530;-81
2021/05/08 05:11:12;;;;;;;0.00;0.00;;;10.60;99.90;;;;;;5074391;28;20043;-80
2021/05/08 05:13:41;;;;;;;0.00;0.00;;;11.60;99.90;;;;;;5070205;28;20047;-80
2021/05/08 05:16:09;;;;;;;0.10;0.10;;;12.20;46.20;;;;;;5077136;28;20021;-81
2021/05/08 05:18:36;;;;;;;0.30;0.30;;;13.00;1.00;;;;;;5071428;28;20088;-80
2021/05/08 05:21:02;;;;;;;0.10;0.10;;;12.90;1.00;;;;;;5071254;28;21338;-80
2021/05/08 05:23:28;;;;;;;0.10;0.10;;;11.80;99.90;;;;;;5050596;28;20794;-80
2021/05/08 05:25:54;;;;;;;0.00;0.00;;;11.20;99.90;;;;;;5048037;28;20049;-80
2021/05/08 05:28:25;;;;;;;0.10;0.10;;;10.80;99.90;;;;;;5052781;28;20471;-80
2021/05/08 05:30:51;;;;;;;0.10;0.10;;;11.00;1.00;;;;;;5072681;28;20023;-79
2021/05/08 05:33:17;;;;;;;0.10;0.05;;;10.90;99.90;;;;;;5085933;28;20025;-80
2021/05/08 05:35:44;;;;;;;0.00;0.00;;;10.80;1.00;;;;;;5059509;28;20032;-79
2021/05/08 05:38:09;;;;;;;0.10;0.10;;;10.90;1.00;;;;;;5070743;28;20016;-80
2021/05/08 05:40:36;;;;;;;0.10;0.10;;;10.70;99.90;;;;;;5071462;28;20020;-79
2021/05/08 05:43:01;;;;;;;0.17;0.17;;;10.00;1.00;;;;;;5071345;28;20063;-80
2021/05/08 05:45:27;;;;;;;0.10;0.10;;;11.30;1.00;;;;;;5068233;28;20077;-79
2021/05/08 05:48:03;;;;;;;0.10;0.10;;;12.60;1.00;;;;;;5050765;28;20113;-80
2021/05/08 05:50:30;;;;;;;0.00;0.00;;;14.10;1.00;;;;;;5050796;28;20035;-80
2021/05/08 05:52:56;;;;;;;0.08;0.08;;;12.40;1.00;;;;;;5050447;28;20065;-79
2021/05/08 05:55:23;;;;;;;0.20;0.20;;;12.30;43.10;;;;;;5081279;28;20502;-79
2021/05/08 05:57:48;;;;;;;;;;;13.60;1.00;;;;;;5090582;28;20032;-79
2021/05/08 06:00:15;;;;;;;0.10;0.10;;;13.00;99.90;;;;;;5090017;28;20387;-79
2021/05/08 06:02:41;;;;;;;;;;;12.50;1.00;;;;;;5090224;28;20035;-78
2021/05/08 06:05:12;;;;;;;0.20;0.20;;;14.70;99.90;;;;;;5079557;28;20006;-79
2021/05/08 06:08:00;;;;;;;;;;;;;;;;;;;;;
2021/05/08 06:10:30;;;;;;;0.17;0.17;;;16.40;99.90;;;;;;5072348;28;20691;-79
2021/05/08 06:13:06;;;;;;;0.00;0.00;;;16.90;99.90;;;;;;5069179;28;20089;-79
2021/05/08 06:15:47;;;;;;;5.45;0.82;;;16.60;99.90;;;;;;5085067;28;20020;-79
2021/05/08 06:18:14;;;;;;;7.05;0.75;;;16.10;99.90;;;;;;5085996;28;20050;-79
2021/05/08 06:20:41;;;;;;;1.65;0.57;;;14.00;99.90;;;;;;5076829;28;20039;-79
2021/05/08 06:23:06;;;;;;;0.37;0.37;;;14.50;99.90;;;;;;5068876;28;20036;-79
2021/05/08 06:25:34;;;;;;;0.00;0.00;;;16.70;99.90;;;;;;5080767;28;20044;-79
2021/05/08 06:28:00;;;;;;;0.03;0.03;;;17.00;99.90;;;;;;5067632;28;20130;-79
2021/05/08 06:30:26;;;;;;;2.33;0.20;;;17.80;99.90;;;;;;5080533;28;20107;-79
2021/05/08 06:32:52;;;;;;;0.10;0.10;;;18.60;99.90;;;;;;5061984;28;20032;-79
2021/05/08 06:35:17;;;;;;;0.00;0.00;;;18.80;99.90;;;;;;5048287;28;20025;-79
2021/05/08 06:37:51;;;;;;;0.63;0.63;;;16.70;99.90;;;;;;5048491;28;20029;-79
2021/05/08 06:40:17;;;;;;;0.00;0.00;;;17.40;99.90;;;;;;5054233;28;20020;-79
2021/05/08 06:42:43;;;;;;;0.30;0.10;;;18.50;99.90;;;;;;5087594;28;20086;-78
2021/05/08 06:45:10;;;;;;;0.28;0.10;;;18.20;99.90;;;;;;5088105;28;20266;-79
2021/05/08 06:47:35;;;;;;;0.00;0.00;;;19.30;99.90;;;;;;5079682;28;20074;-79
2021/05/08 06:50:02;;;;;;;0.00;0.00;;;20.20;99.90;;;;;;5059320;28;20104;-79
2021/05/08 06:52:28;;;;;;;0.45;0.45;;;20.60;99.90;;;;;;5057625;28;20025;-79
2021/05/08 06:54:53;;;;;;;0.20;0.10;;;18.90;99.90;;;;;;5053436;28;20033;-79
2021/05/08 06:57:19;;;;;;;1.60;0.63;;;18.70;99.90;;;;;;5047395;28;20021;-79
2021/05/08 06:59:45;;;;;;;0.00;0.00;;;19.50;99.90;;;;;;5061840;28;20032;-80
2021/05/08 07:02:11;;;;;;;0.65;0.52;;;21.50;99.90;;;;;;5050107;28;20035;-80
2021/05/08 07:04:37;;;;;;;0.00;0.00;;;20.60;99.90;;;;;;5056315;28;20111;-79
2021/05/08 07:07:03;;;;;;;0.00;0.00;;;18.40;99.90;;;;;;5049388;28;20037;-79
2021/05/08 07:09:30;;;;;;;0.67;0.27;;;20.70;99.90;;;;;;5048085;28;20106;-79
2021/05/08 07:11:56;;;;;;;0.00;0.00;;;22.10;99.90;;;;;;5047602;28;20116;-79
2021/05/08 07:14:22;;;;;;;0.00;0.00;;;22.40;99.90;;;;;;5059961;28;20098;-80
2021/05/08 07:16:48;;;;;;;0.00;0.00;;;23.00;99.90;;;;;;5053228;28;20481;-79
2021/05/08 07:19:14;;;;;;;0.43;0.10;;;23.40;99.90;;;;;;5044576;28;20025;-80
2021/05/08 07:21:41;;;;;;;0.00;0.00;;;23.80;99.90;;;;;;5058651;28;20695;-80
2021/05/08 07:24:07;;;;;;;0.00;0.00;;;24.00;99.90;;;;;;5050737;28;20052;-80
2021/05/08 07:26:34;;;;;;;0.15;0.15;;;23.50;99.90;;;;;;5057031;28;20033;-79
2021/05/08 07:29:00;;;;;;;0.00;0.00;;;23.20;99.90;;;;;;5050275;28;20833;-79
2021/05/08 07:31:27;;;;;;;0.10;0.10;;;22.70;99.90;;;;;;5044301;28;20481;-79
2021/05/08 07:33:53;;;;;;;0.00;0.00;;;23.70;99.90;;;;;;5045889;28;20075;-80
2021/05/08 07:36:20;;;;;;;0.28;0.28;;;24.70;99.90;;;;;;5046763;28;20021;-79
2021/05/08 07:38:45;;;;;;;1.15;0.57;;;24.30;99.90;;;;;;5047845;28;20028;-79
2021/05/08 07:41:11;;;;;;;0.05;0.05;;;24.80;99.90;;;;;;5047421;28;20028;-79
2021/05/08 07:43:37;;;;;;;0.73;0.73;;;25.20;99.90;;;;;;5053767;28;20032;-80
2021/05/08 07:46:03;;;;;;;1.25;0.55;;;24.10;99.90;;;;;;5052679;28;20032;-79
2021/05/08 07:48:29;;;;;;;;;;;24.20;99.90;;;;;;5053529;28;20054;-80
2021/05/08 07:50:55;;;;;;;;;;;24.60;99.90;;;;;;5061414;28;19966;-79
2021/05/08 07:53:22;;;;;;;0.17;0.17;;;25.50;99.90;;;;;;5056218;28;19935;-80
2021/05/08 07:55:50;;;;;;;;;;;25.30;99.90;;;;;;5052711;28;20520;-80
2021/05/08 07:58:16;;;;;;;0.40;0.40;;;24.70;99.90;;;;;;5054927;28;19918;-80
2021/05/08 08:00:42;;;;;;;0.00;0.00;;;24.40;99.90;;;;;;5055375;28;20395;-80
2021/05/08 08:03:08;;;;;;;0.10;0.03;;;25.60;99.90;;;;;;5065040;28;20029;-80
2021/05/08 08:05:34;;;;;;;0.00;0.00;;;26.50;99.90;;;;;;5065920;28;20507;-81
2021/05/08 08:08:00;;;;;;;0.13;0.10;;;27.40;99.90;;;;;;5045918;28;20390;-81
2021/05/08 08:10:27;;;;;;;0.00;0.00;;;26.40;99.90;;;;;;5051464;28;20036;-81
2021/05/08 08:12:53;;;;;;;;;;;27.50;99.90;;;;;;5047174;28;20032;-81
2021/05/08 08:15:19;;;;;;;0.65;0.22;;;26.30;99.90;;;;;;5052147;28;20003;-81
2021/05/08 08:17:46;;;;;;;0.00;0.00;;;28.20;99.90;;;;;;5058521;28;20123;-81
2021/05/08 08:20:15;;;;;;;0.00;0.00;;;27.00;99.90;;;;;;5052331;28;20024;-81
2021/05/08 08:22:44;;;;;;;0.10;0.00;;;27.90;99.90;;;;;;5057918;28;20035;-81
2021/05/08 08:25:12;;;;;;;0.00;0.00;;;26.50;99.90;;;;;;5059844;28;20508;-81
2021/05/08 08:27:38;;;;;;;0.20;0.20;;;27.40;99.90;;;;;;5062829;28;20020;-80
2021/05/08 08:30:07;;;;;;;0.17;0.17;;;29.50;99.90;;;;;;5053186;28;20041;-80
2021/05/08 08:32:34;;;;;;;0.00;0.00;;;28.90;99.30;;;;;;5054610;28;20025;-80
2021/05/08 08:35:00;;;;;;;;;;;28.50;96.00;;;;;;5061834;28;20108;-80
2021/05/08 08:37:28;;;;;;;0.00;0.00;;;30.20;96.00;;;;;;5051550;28;19916;-81
2021/05/08 08:39:54;;;;;;;0.30;0.10;;;29.80;95.50;;;;;;5052271;28;20531;-81
2021/05/08 08:42:20;;;;;;;0.55;0.25;;;28.60;96.30;;;;;;5057578;28;20017;-81
2021/05/08 08:44:46;;;;;;;0.10;0.03;;;27.90;95.40;;;;;;5051753;28;20096;-81
2021/05/08 08:47:29;;;;;;;0.00;0.00;;;27.20;96.80;;;;;;5069998;28;20119;-80
2021/05/08 08:50:12;;;;;;;0.00;0.00;;;27.80;95.60;;;;;;5066969;28;20087;-81
2021/05/08 08:52:39;;;;;;;0.00;0.00;;;30.10;92.20;;;;;;5060515;28;20091;-80
2021/05/08 08:55:09;;;;;;;0.00;0.00;;;30.30;90.80;;;;;;5067121;28;20058;-80
2021/05/08 08:57:39;;;;;;;0.00;0.00;;;28.40;93.50;;;;;;5060982;28;20039;-80
2021/05/08 09:00:16;;;;;;;0.35;0.35;;;30.90;86.30;;;;;;5079515;28;20021;-81
2021/05/08 09:02:48;;;;;;;0.00;0.00;;;30.00;89.10;;;;;;5080139;28;20060;-80
2021/05/08 09:05:23;;;;;;;3.40;1.08;;;29.80;85.60;;;;;;5046487;28;20033;-80
2021/05/08 09:07:50;;;;;;;0.00;0.00;;;28.80;75.40;;;;;;5048268;28;20032;-81
2021/05/08 09:10:26;;;;;;;0.00;0.00;;;29.00;76.30;;;;;;5047908;28;20441;-81
2021/05/08 09:12:54;;;;;;;0.00;0.00;;;31.20;69.00;;;;;;5049303;28;20029;-81
2021/05/08 09:15:31;;;;;;;0.00;0.00;;;29.40;76.80;;;;;;5049166;28;20029;-81
2021/05/08 09:17:57;;;;;;;0.00;0.00;;;29.70;67.90;;;;;;5049173;28;20049;-81
2021/05/08 09:20:23;;;;;;;0.00;0.00;;;31.10;65.20;;;;;;5049483;28;20017;-80
2021/05/08 09:22:51;;;;;;;0.00;0.00;;;31.60;60.80;;;;;;5065889;28;20033;-81
2021/05/08 09:25:19;;;;;;;0.70;0.32;;;32.30;60.80;;;;;;5088097;28;20024;-81
2021/05/08 09:27:51;;;;;;;0.00;0.00;;;28.20;63.10;;;;;;5088140;28;20548;-81
2021/05/08 09:30:20;;;;;;;1.00;0.15;;;30.20;64.30;;;;;;5084706;28;20031;-81
2021/05/08 09:32:48;;;;;;;0.00;0.00;;;31.40;63.80;;;;;;5062849;28;20126;-80
2021/05/08 09:35:25;;;;;;;0.00;0.00;;;29.80;62.00;;;;;;5088136;28;20028;-80
2021/05/08 09:38:05;;;;;;;0.28;0.28;;;28.60;62.20;;;;;;5087670;28;20026;-80
2021/05/08 09:40:31;;;;;;;0.45;0.28;;;29.40;62.80;;;;;;5086856;28;20038;-80
2021/05/08 09:42:59;;;;;;;0.03;0.03;;;31.80;57.20;;;;;;5087269;28;20028;-80
2021/05/08 09:45:27;;;;;;;0.00;0.00;;;35.10;52.30;;;;;;5088807;28;20049;-80
2021/05/08 09:47:53;;;;;;;0.00;0.00;;;30.00;50.90;;;;;;5073068;28;20024;-80
2021/05/08 09:50:24;;;;;;;0.00;0.00;;;28.20;57.70;;;;;;5067898;28;20399;-80
2021/05/08 09:52:55;;;;;;;0.08;0.08;;;27.80;57.80;;;;;;5064525;28;20017;-80
2021/05/08 09:55:24;;;;;;;0.00;0.00;;;29.40;58.40;;;;;;5086531;28;20062;-81
2021/05/08 09:58:07;;;;;;;0.00;0.00;;;28.50;59.60;;;;;;5072038;28;20097;-80
2021/05/08 10:00:39;;;;;;;0.10;0.10;;;28.60;58.10;;;;;;5068053;28;20033;-81
2021/05/08 10:03:09;;;;;;;0.20;0.00;;;31.80;51.80;;;;;;5073029;28;20024;-81
2021/05/08 10:05:35;;;;;;;0.00;0.00;;;28.20;54.80;;;;;;5068902;28;20032;-81
2021/05/08 10:08:02;;;;;;;0.40;0.25;;;29.40;56.60;;;;;;5069369;28;20056;-81
2021/05/08 10:10:28;;;;;;;0.25;0.25;;;29.10;51.30;;;;;;5069194;28;20454;-81
2021/05/08 10:12:55;;;;;;;0.10;0.10;;;32.00;45.80;;;;;;5068683;28;20032;-81
2021/05/08 10:15:21;;;;;;;2.03;0.35;;;33.40;43.70;;;;;;5066915;28;20069;-81
2021/05/08 10:17:48;;;;;;;0.10;0.05;;;34.70;38.80;;;;;;5068778;28;20012;-81
2021/05/08 10:20:15;;;;;;;0.00;0.00;;;30.60;44.10;;;;;;5070272;28;20039;-82
2021/05/08 10:22:40;;;;;;;;;;;31.50;44.80;;;;;;5067611;28;20526;-81
2021/05/08 10:25:06;;;;;;;;;;;33.90;39.10;;;;;;5069005;28;19908;-80
2021/05/08 10:27:32;;;;;;;0.43;0.10;;;34.20;36.60;;;;;;5067718;28;19950;-81
2021/05/08 10:29:59;;;;;;;0.10;0.10;;;31.70;39.00;;;;;;5066858;28;20036;-81
2021/05/08 10:32:26;;;;;;;0.00;0.00;;;29.40;42.70;;;;;;5069086;28;20024;-82
2021/05/08 10:35:02;;;;;;;0.13;0.13;;;31.40;40.20;;;;;;5068766;28;20694;-80
2021/05/08 10:37:28;;;;;;;;;;;35.10;36.50;;;;;;5057990;28;20504;-80
2021/05/08 10:40:00;;;;;;;0.00;0.00;;;33.10;34.40;;;;;;5050771;28;20276;-80
2021/05/08 10:42:40;;;;;;;0.10;0.10;;;34.10;36.00;;;;;;5057922;28;20028;-80
2021/05/08 10:45:23;;;;;;;0.10;0.10;;;30.50;43.90;;;;;;5054104;28;20127;-80
2021/05/08 10:47:55;;;;;;;0.00;0.00;;;29.40;43.80;;;;;;5073786;28;20142;-79
2021/05/08 10:50:26;;;;;;;0.38;0.38;;;30.70;42.90;;;;;;5057267;28;20074;-80
2021/05/08 10:53:02;;;;;;;0.00;0.00;;;30.80;44.30;;;;;;5058629;28;20043;-81
2021/05/08 10:55:30;;;;;;;0.10;0.10;;;32.40;40.70;;;;;;5066595;28;20162;-81
2021/05/08 10:58:18;;;;;;;0.03;0.03;;;30.10;38.20;;;;;;5060519;28;20043;-80
2021/05/08 11:00:46;;;;;;;0.98;0.55;;;32.60;35.50;;;;;;5058154;28;20105;-80
2021/05/08 11:03:13;;;;;;;0.65;0.20;;;28.50;42.80;;;;;;5061554;28;20067;-81
2021/05/08 11:06:03;;;;;;;0.00;0.00;;;28.50;45.20;;;;;;5057563;28;20111;-81
2021/05/08 11:08:29;;;;;;;0.00;0.00;;;34.10;35.00;;;;;;5057987;28;20045;-81
2021/05/08 11:10:59;;;;;;;5.72;1.10;;;32.90;30.30;;;;;;5059536;28;20111;-83
2021/05/08 11:13:26;;;;;;;0.00;0.00;;;33.10;32.50;;;;;;5056354;28;20032;-82
2021/05/08 11:15:55;;;;;;;0.57;0.00;;;29.70;37.80;;;;;;5059858;28;20075;-82
2021/05/08 11:18:45;;;;;;;0.85;0.10;;;30.60;36.20;;;;;;5075573;28;20151;-82
2021/05/08 11:21:11;;;;;;;0.10;0.10;;;30.80;39.40;;;;;;5066630;28;20028;-82
2021/05/08 11:23:41;;;;;;;0.00;0.00;;;32.10;36.70;;;;;;5068604;28;20024;-82
2021/05/08 11:26:34;;;;;;;0.85;0.47;;;33.20;34.00;;;;;;5076807;28;20085;-82
2021/05/08 11:29:07;;;;;;;0.00;0.00;;;32.10;33.80;;;;;;5062788;28;20117;-82
2021/05/08 11:31:42;;;;;;;0.10;0.10;;;26.90;44.20;;;;;;5068639;28;20599;-83
2021/05/08 11:34:13;;;;;;;0.10;0.10;;;25.70;48.30;;;;;;5065520;28;20029;-82
2021/05/08 11:36:55;;;;;;;0.00;0.00;;;24.60;50.10;;;;;;5059566;28;20032;-82
2021/05/08 11:39:26;;;;;;;0.00;0.00;;;24.60;50.80;;;;;;5054802;28;20032;-82
2021/05/08 11:41:57;;;;;;;0.03;0.03;;;24.30;53.20;;;;;;5054394;28;20017;-82
2021/05/08 11:44:29;;;;;;;0.20;0.20;;;24.60;50.20;;;;;;5054789;28;20029;-82
2021/05/08 11:47:04;;;;;;;0.00;0.00;;;24.80;50.90;;;;;;5069794;28;20040;-81
2021/05/08 11:49:35;;;;;;;0.03;0.03;;;25.00;51.40;;;;;;5069503;28;20078;-82
2021/05/08 11:52:04;;;;;;;0.30;0.30;;;24.90;52.40;;;;;;5062707;28;20107;-82
2021/05/08 11:54:40;;;;;;;0.00;0.00;;;24.70;52.30;;;;;;5068003;28;20043;-81
2021/05/08 11:57:22;;;;;;;0.00;0.00;;;24.30;53.30;;;;;;5065336;28;20056;-81
2021/05/08 11:59:48;;;;;;;0.10;0.10;;;24.30;52.50;;;;;;5072294;28;20647;-81
2021/05/08 12:02:25;;;;;;;0.00;0.00;;;24.30;52.50;;;;;;5078308;28;20020;-80
2021/05/08 12:04:57;;;;;;;0.00;0.00;;;24.60;52.70;;;;;;5065356;28;20078;-80
2021/05/08 12:07:29;;;;;;;0.17;0.17;;;24.40;52.30;;;;;;5068872;28;20491;-80
2021/05/08 12:10:20;;;;;;;0.00;0.00;;;24.40;52.80;;;;;;5072959;28;20052;-81
2021/05/08 12:12:51;;;;;;;0.00;0.00;;;24.60;53.40;;;;;;5069456;28;20513;-80
2021/05/08 12:15:34;;;;;;;0.08;0.08;;;24.70;52.20;;;;;;5067439;28;20087;-80
2021/05/08 12:18:11;;;;;;;1.52;0.25;;;24.80;53.10;;;;;;5068373;28;20562;-80
2021/05/08 12:20:45;;;;;;;0.00;0.00;;;25.00;51.80;;;;;;5078280;28;20070;-81
2021/05/08 12:23:15;;;;;;;0.10;0.10;;;25.00;54.90;;;;;;5064697;28;20112;-81
2021/05/08 12:25:42;;;;;;;0.05;0.05;;;25.00;53.10;;;;;;5069464;28;20131;-80
2021/05/08 12:28:21;;;;;;;;;;;24.90;53.60;;;;;;5063245;28;20044;-80
2021/05/08 12:30:49;;;;;;;0.52;0.15;;;25.00;53.90;;;;;;5058977;28;19965;-81
2021/05/08 12:33:19;;;;;;;0.22;0.20;;;25.10;54.30;;;;;;5048123;28;20094;-82
2021/05/08 12:35:47;;;;;;;0.00;0.00;;;24.70;53.10;;;;;;5055523;28;20875;-81
2021/05/08 12:38:20;;;;;;;0.00;0.00;;;24.80;53.50;;;;;;5060625;28;20041;-82
2021/05/08 12:40:47;;;;;;;0.00;0.00;;;25.00;54.00;;;;;;5060153;28;20910;-82
2021/05/08 12:43:32;;;;;;;0.00;0.00;;;25.10;54.30;;;;;;5079667;28;20431;-82
2021/05/08 12:46:11;;;;;;;0.00;0.00;;;25.10;54.20;;;;;;5069465;28;20028;-82
2021/05/08 12:48:43;;;;;;;0.00;0.00;;;24.90;53.20;;;;;;5066944;28;20032;-83
2021/05/08 12:51:34;;;;;;;0.10;0.10;;;24.90;53.00;;;;;;5052787;28;20116;-82
2021/05/08 12:54:33;;;;;;;0.00;0.00;;;24.70;53.40;;;;;;5061326;28;20029;-82
2021/05/08 12:57:19;;;;;;;0.00;0.00;;;24.80;53.30;;;;;;5059748;28;20994;-81
2021/05/08 13:00:03;;;;;;;0.00;0.00;;;24.80;53.00;;;;;;5068644;28;20075;-81
2021/05/08 13:02:31;;;;;;;0.10;0.10;;;25.00;55.10;;;;;;5062009;28;20032;-81